Decoded Metar for MMTC (TORREON in MEXICO) (IATA:TRC) | Meteo·Mobile Aviation Weather
aviador You're here:

MMTC Decoded Metar

TORREON in MEXICO
Report Time2019-10-18 13:46:00
UTC Time2019-10-18 14:24:54
Flight Rules vfr VFR
WindCalm
Visibility9999 m
Phenomena:N/A
Clouds:Scattered 220 Hf
Expected CloudBase > 1,600 ft AGL from Temp-Dew spread
CeilingNone
Temp19°C (ISA +11)
Dew Point15°C (78% RH)
QNH1015 hPa
Density Alt5,180 ft
Elevation3,688 ft
Report Wrong Elevation
Raw Report
MMTC 181346Z 00000KT 8SM SCT220 19/15 A2997 RMK 8/002 HZY ISOL
AS=

Extra information for MMTC:More info

Metar Taf Metar & Taf Last 4 Metars F.Rules Stats Wind Profile Meteogram Temp Stats Airport Information Weather charts Add Link Nearby VenuesMetar ALERT Operation Metar Decoded Social comments